sensor_id;sensor_type;location;lat;lon;timestamp;P1;durP1;ratioP1;P2;durP2;ratioP2
67140;SDS011;54058;52.010;5.546;2022-09-14T00:01:48;6.45;;;1.83;;
67140;SDS011;54058;52.010;5.546;2022-09-14T00:04:14;7.88;;;1.45;;
67140;SDS011;54058;52.010;5.546;2022-09-14T00:06:42;7.35;;;1.38;;
67140;SDS011;54058;52.010;5.546;2022-09-14T00:09:10;6.45;;;1.65;;
67140;SDS011;54058;52.010;5.546;2022-09-14T00:11:47;5.07;;;1.60;;
67140;SDS011;54058;52.010;5.546;2022-09-14T00:14:14;4.47;;;1.63;;
67140;SDS011;54058;52.010;5.546;2022-09-14T00:16:40;5.73;;;2.00;;
67140;SDS011;54058;52.010;5.546;2022-09-14T00:19:17;7.95;;;1.80;;
67140;SDS011;54058;52.010;5.546;2022-09-14T00:21:51;6.75;;;1.75;;
67140;SDS011;54058;52.010;5.546;2022-09-14T00:24:21;9.00;;;2.00;;
67140;SDS011;54058;52.010;5.546;2022-09-14T00:26:48;8.55;;;1.77;;
67140;SDS011;54058;52.010;5.546;2022-09-14T00:29:14;8.15;;;2.00;;
67140;SDS011;54058;52.010;5.546;2022-09-14T00:31:40;9.25;;;2.30;;
67140;SDS011;54058;52.010;5.546;2022-09-14T00:34:06;9.23;;;2.38;;
67140;SDS011;54058;52.010;5.546;2022-09-14T00:36:36;5.50;;;1.40;;
67140;SDS011;54058;52.010;5.546;2022-09-14T00:39:06;5.78;;;1.88;;
67140;SDS011;54058;52.010;5.546;2022-09-14T00:41:33;7.00;;;1.70;;
67140;SDS011;54058;52.010;5.546;2022-09-14T00:44:03;5.53;;;1.60;;
67140;SDS011;54058;52.010;5.546;2022-09-14T00:46:31;13.75;;;2.50;;
67140;SDS011;54058;52.010;5.546;2022-09-14T00:49:08;10.93;;;1.77;;
67140;SDS011;54058;52.010;5.546;2022-09-14T00:51:53;13.13;;;2.03;;
67140;SDS011;54058;52.010;5.546;2022-09-14T00:54:24;7.60;;;1.75;;
67140;SDS011;54058;52.010;5.546;2022-09-14T00:56:50;5.22;;;1.52;;
67140;SDS011;54058;52.010;5.546;2022-09-14T00:59:19;9.50;;;2.30;;
67140;SDS011;54058;52.010;5.546;2022-09-14T01:01:49;6.50;;;2.03;;
67140;SDS011;54058;52.010;5.546;2022-09-14T01:04:14;4.47;;;1.90;;
67140;SDS011;54058;52.010;5.546;2022-09-14T01:14:49;10.80;;;2.03;;
67140;SDS011;54058;52.010;5.546;2022-09-14T01:20:42;7.10;;;1.65;;
67140;SDS011;54058;52.010;5.546;2022-09-14T01:27:14;6.65;;;1.90;;
67140;SDS011;54058;52.010;5.546;2022-09-14T01:29:34;5.22;;;1.50;;
67140;SDS011;54058;52.010;5.546;2022-09-14T01:35:39;7.70;;;2.20;;
67140;SDS011;54058;52.010;5.546;2022-09-14T01:38:16;5.15;;;1.80;;
67140;SDS011;54058;52.010;5.546;2022-09-14T01:40:50;6.35;;;1.65;;
67140;SDS011;54058;52.010;5.546;2022-09-14T01:43:21;4.90;;;1.73;;
67140;SDS011;54058;52.010;5.546;2022-09-14T01:45:50;6.68;;;1.65;;
67140;SDS011;54058;52.010;5.546;2022-09-14T01:48:19;6.28;;;2.50;;
67140;SDS011;54058;52.010;5.546;2022-09-14T01:50:52;12.35;;;2.30;;
67140;SDS011;54058;52.010;5.546;2022-09-14T01:53:30;9.82;;;2.33;;
67140;SDS011;54058;52.010;5.546;2022-09-14T01:56:18;7.65;;;2.38;;
67140;SDS011;54058;52.010;5.546;2022-09-14T01:58:52;12.43;;;2.28;;
67140;SDS011;54058;52.010;5.546;2022-09-14T02:02:06;11.13;;;2.83;;
67140;SDS011;54058;52.010;5.546;2022-09-14T02:04:10;11.45;;;2.25;;
67140;SDS011;54058;52.010;5.546;2022-09-14T02:06:42;6.57;;;2.20;;
67140;SDS011;54058;52.010;5.546;2022-09-14T02:09:11;10.82;;;2.53;;
67140;SDS011;54058;52.010;5.546;2022-09-14T02:11:39;12.05;;;2.50;;
67140;SDS011;54058;52.010;5.546;2022-09-14T02:14:05;12.23;;;2.20;;
67140;SDS011;54058;52.010;5.546;2022-09-14T02:16:31;7.55;;;2.40;;
67140;SDS011;54058;52.010;5.546;2022-09-14T02:18:57;7.90;;;2.47;;
67140;SDS011;54058;52.010;5.546;2022-09-14T02:21:28;17.50;;;2.70;;
67140;SDS011;54058;52.010;5.546;2022-09-14T02:23:55;7.53;;;2.20;;
67140;SDS011;54058;52.010;5.546;2022-09-14T02:26:24;7.22;;;2.30;;
67140;SDS011;54058;52.010;5.546;2022-09-14T02:28:50;15.85;;;2.75;;
67140;SDS011;54058;52.010;5.546;2022-09-14T02:37:41;6.53;;;2.50;;
67140;SDS011;54058;52.010;5.546;2022-09-14T02:42:48;11.32;;;2.80;;
67140;SDS011;54058;52.010;5.546;2022-09-14T02:53:17;8.23;;;2.63;;
67140;SDS011;54058;52.010;5.546;2022-09-14T02:55:54;9.75;;;2.90;;
67140;SDS011;54058;52.010;5.546;2022-09-14T02:58:23;11.82;;;3.17;;
67140;SDS011;54058;52.010;5.546;2022-09-14T03:00:57;8.13;;;2.72;;
67140;SDS011;54058;52.010;5.546;2022-09-14T03:03:22;11.80;;;2.75;;
67140;SDS011;54058;52.010;5.546;2022-09-14T03:05:48;9.68;;;2.75;;
67140;SDS011;54058;52.010;5.546;2022-09-14T03:08:14;6.57;;;2.80;;
67140;SDS011;54058;52.010;5.546;2022-09-14T03:10:42;8.25;;;2.47;;
67140;SDS011;54058;52.010;5.546;2022-09-14T03:13:08;7.47;;;2.67;;
67140;SDS011;54058;52.010;5.546;2022-09-14T03:15:34;8.80;;;1.97;;
67140;SDS011;54058;52.010;5.546;2022-09-14T03:18:00;7.18;;;1.90;;
67140;SDS011;54058;52.010;5.546;2022-09-14T03:20:26;11.38;;;2.38;;
67140;SDS011;54058;52.010;5.546;2022-09-14T03:22:53;5.28;;;1.80;;
67140;SDS011;54058;52.010;5.546;2022-09-14T03:25:19;14.15;;;2.33;;
67140;SDS011;54058;52.010;5.546;2022-09-14T03:27:50;8.80;;;2.03;;
67140;SDS011;54058;52.010;5.546;2022-09-14T03:30:18;5.82;;;1.75;;
67140;SDS011;54058;52.010;5.546;2022-09-14T03:32:44;4.93;;;1.70;;
67140;SDS011;54058;52.010;5.546;2022-09-14T03:35:10;8.82;;;1.98;;
67140;SDS011;54058;52.010;5.546;2022-09-14T03:37:36;4.97;;;1.73;;
67140;SDS011;54058;52.010;5.546;2022-09-14T03:40:04;9.02;;;1.98;;
67140;SDS011;54058;52.010;5.546;2022-09-14T03:42:30;7.80;;;1.73;;
67140;SDS011;54058;52.010;5.546;2022-09-14T03:44:56;11.07;;;1.50;;
67140;SDS011;54058;52.010;5.546;2022-09-14T03:47:22;8.55;;;1.45;;
67140;SDS011;54058;52.010;5.546;2022-09-14T03:49:48;7.70;;;1.40;;
67140;SDS011;54058;52.010;5.546;2022-09-14T03:52:13;4.93;;;1.10;;
67140;SDS011;54058;52.010;5.546;2022-09-14T03:54:39;9.52;;;1.60;;
67140;SDS011;54058;52.010;5.546;2022-09-14T03:57:05;2.75;;;1.20;;
67140;SDS011;54058;52.010;5.546;2022-09-14T03:59:31;8.02;;;1.90;;
67140;SDS011;54058;52.010;5.546;2022-09-14T04:01:57;14.40;;;3.20;;
67140;SDS011;54058;52.010;5.546;2022-09-14T04:04:23;9.93;;;3.28;;
67140;SDS011;54058;52.010;5.546;2022-09-14T04:06:48;10.50;;;2.63;;
67140;SDS011;54058;52.010;5.546;2022-09-14T04:09:14;6.10;;;2.13;;
67140;SDS011;54058;52.010;5.546;2022-09-14T04:11:40;7.43;;;2.08;;
67140;SDS011;54058;52.010;5.546;2022-09-14T04:14:05;12.30;;;2.00;;
67140;SDS011;54058;52.010;5.546;2022-09-14T04:16:32;3.40;;;1.17;;
67140;SDS011;54058;52.010;5.546;2022-09-14T04:18:58;11.25;;;1.80;;
67140;SDS011;54058;52.010;5.546;2022-09-14T04:21:24;6.22;;;1.50;;
67140;SDS011;54058;52.010;5.546;2022-09-14T04:23:54;2.42;;;0.95;;
67140;SDS011;54058;52.010;5.546;2022-09-14T04:26:21;3.95;;;1.23;;
67140;SDS011;54058;52.010;5.546;2022-09-14T04:28:48;4.45;;;1.08;;
67140;SDS011;54058;52.010;5.546;2022-09-14T04:31:14;4.32;;;1.10;;
67140;SDS011;54058;52.010;5.546;2022-09-14T04:33:41;5.28;;;0.98;;
67140;SDS011;54058;52.010;5.546;2022-09-14T04:36:08;8.73;;;2.05;;
67140;SDS011;54058;52.010;5.546;2022-09-14T04:38:36;10.40;;;1.50;;
67140;SDS011;54058;52.010;5.546;2022-09-14T04:41:07;5.30;;;1.65;;
67140;SDS011;54058;52.010;5.546;2022-09-14T04:43:38;6.70;;;1.73;;
67140;SDS011;54058;52.010;5.546;2022-09-14T04:46:05;8.90;;;2.17;;
67140;SDS011;54058;52.010;5.546;2022-09-14T04:48:34;8.05;;;2.47;;
67140;SDS011;54058;52.010;5.546;2022-09-14T04:51:04;13.02;;;2.75;;
67140;SDS011;54058;52.010;5.546;2022-09-14T04:53:33;8.85;;;3.08;;
67140;SDS011;54058;52.010;5.546;2022-09-14T04:56:00;6.68;;;2.60;;
67140;SDS011;54058;52.010;5.546;2022-09-14T04:58:27;5.72;;;2.75;;
67140;SDS011;54058;52.010;5.546;2022-09-14T05:00:54;4.68;;;2.03;;
67140;SDS011;54058;52.010;5.546;2022-09-14T05:03:24;13.30;;;2.40;;
67140;SDS011;54058;52.010;5.546;2022-09-14T05:05:50;7.05;;;2.17;;
67140;SDS011;54058;52.010;5.546;2022-09-14T05:08:15;11.43;;;2.50;;
67140;SDS011;54058;52.010;5.546;2022-09-14T05:10:41;7.22;;;1.95;;
67140;SDS011;54058;52.010;5.546;2022-09-14T05:13:07;6.80;;;2.10;;
67140;SDS011;54058;52.010;5.546;2022-09-14T05:15:33;6.07;;;1.90;;
67140;SDS011;54058;52.010;5.546;2022-09-14T05:17:58;8.40;;;1.83;;
67140;SDS011;54058;52.010;5.546;2022-09-14T05:20:24;10.05;;;1.73;;
67140;SDS011;54058;52.010;5.546;2022-09-14T05:22:49;4.63;;;1.45;;
67140;SDS011;54058;52.010;5.546;2022-09-14T05:25:15;10.38;;;2.00;;
67140;SDS011;54058;52.010;5.546;2022-09-14T05:27:41;7.22;;;1.83;;
67140;SDS011;54058;52.010;5.546;2022-09-14T05:30:07;4.05;;;1.52;;
67140;SDS011;54058;52.010;5.546;2022-09-14T05:32:33;4.13;;;1.53;;
67140;SDS011;54058;52.010;5.546;2022-09-14T05:34:58;6.60;;;1.80;;
67140;SDS011;54058;52.010;5.546;2022-09-14T05:37:24;8.82;;;1.67;;
67140;SDS011;54058;52.010;5.546;2022-09-14T05:39:50;6.57;;;1.35;;
67140;SDS011;54058;52.010;5.546;2022-09-14T05:42:15;6.05;;;1.58;;
67140;SDS011;54058;52.010;5.546;2022-09-14T05:44:41;10.05;;;1.42;;
67140;SDS011;54058;52.010;5.546;2022-09-14T05:47:07;5.13;;;1.40;;
67140;SDS011;54058;52.010;5.546;2022-09-14T05:49:32;8.85;;;1.85;;
67140;SDS011;54058;52.010;5.546;2022-09-14T05:51:58;3.60;;;1.27;;
67140;SDS011;54058;52.010;5.546;2022-09-14T05:54:23;4.70;;;1.30;;
67140;SDS011;54058;52.010;5.546;2022-09-14T05:56:49;7.65;;;1.60;;
67140;SDS011;54058;52.010;5.546;2022-09-14T05:59:14;5.70;;;1.48;;
67140;SDS011;54058;52.010;5.546;2022-09-14T06:01:40;3.75;;;1.38;;
67140;SDS011;54058;52.010;5.546;2022-09-14T06:04:05;6.03;;;1.73;;
67140;SDS011;54058;52.010;5.546;2022-09-14T06:06:31;10.20;;;1.67;;
67140;SDS011;54058;52.010;5.546;2022-09-14T06:08:57;6.40;;;1.73;;
67140;SDS011;54058;52.010;5.546;2022-09-14T06:11:30;9.90;;;1.60;;
67140;SDS011;54058;52.010;5.546;2022-09-14T06:13:57;4.82;;;1.10;;
67140;SDS011;54058;52.010;5.546;2022-09-14T06:16:25;6.00;;;1.30;;
67140;SDS011;54058;52.010;5.546;2022-09-14T06:18:52;3.83;;;1.35;;
67140;SDS011;54058;52.010;5.546;2022-09-14T06:21:19;7.97;;;1.70;;
67140;SDS011;54058;52.010;5.546;2022-09-14T06:23:46;7.57;;;1.80;;
67140;SDS011;54058;52.010;5.546;2022-09-14T06:26:13;11.30;;;1.40;;
67140;SDS011;54058;52.010;5.546;2022-09-14T06:28:39;8.85;;;1.80;;
67140;SDS011;54058;52.010;5.546;2022-09-14T06:31:05;5.23;;;1.40;;
67140;SDS011;54058;52.010;5.546;2022-09-14T06:33:34;4.38;;;1.65;;
67140;SDS011;54058;52.010;5.546;2022-09-14T06:36:04;5.43;;;1.52;;
67140;SDS011;54058;52.010;5.546;2022-09-14T06:38:36;7.30;;;1.60;;
67140;SDS011;54058;52.010;5.546;2022-09-14T06:41:02;6.25;;;1.48;;
67140;SDS011;54058;52.010;5.546;2022-09-14T06:43:31;5.63;;;1.60;;
67140;SDS011;54058;52.010;5.546;2022-09-14T06:45:59;12.90;;;1.30;;
67140;SDS011;54058;52.010;5.546;2022-09-14T06:48:34;5.13;;;1.48;;
67140;SDS011;54058;52.010;5.546;2022-09-14T06:51:14;10.30;;;2.35;;
67140;SDS011;54058;52.010;5.546;2022-09-14T06:53:43;33.38;;;2.83;;
67140;SDS011;54058;52.010;5.546;2022-09-14T06:58:35;19.63;;;1.90;;
67140;SDS011;54058;52.010;5.546;2022-09-14T07:01:05;15.05;;;1.48;;
67140;SDS011;54058;52.010;5.546;2022-09-14T07:03:34;5.45;;;1.20;;
67140;SDS011;54058;52.010;5.546;2022-09-14T07:06:11;16.63;;;1.77;;
67140;SDS011;54058;52.010;5.546;2022-09-14T07:08:41;10.07;;;1.42;;
67140;SDS011;54058;52.010;5.546;2022-09-14T07:11:08;6.15;;;1.83;;
67140;SDS011;54058;52.010;5.546;2022-09-14T07:13:35;9.48;;;1.48;;
67140;SDS011;54058;52.010;5.546;2022-09-14T07:16:01;26.55;;;2.50;;
67140;SDS011;54058;52.010;5.546;2022-09-14T07:18:30;12.32;;;1.80;;
67140;SDS011;54058;52.010;5.546;2022-09-14T07:21:30;8.88;;;1.40;;
67140;SDS011;54058;52.010;5.546;2022-09-14T07:23:49;10.38;;;1.73;;
67140;SDS011;54058;52.010;5.546;2022-09-14T07:26:19;13.68;;;1.52;;
67140;SDS011;54058;52.010;5.546;2022-09-14T07:28:47;8.60;;;2.40;;
67140;SDS011;54058;52.010;5.546;2022-09-14T07:33:58;6.95;;;1.48;;
67140;SDS011;54058;52.010;5.546;2022-09-14T07:36:26;9.00;;;1.80;;
67140;SDS011;54058;52.010;5.546;2022-09-14T07:38:52;9.97;;;1.73;;
67140;SDS011;54058;52.010;5.546;2022-09-14T07:41:18;9.85;;;1.30;;
67140;SDS011;54058;52.010;5.546;2022-09-14T07:43:52;11.02;;;1.67;;
67140;SDS011;54058;52.010;5.546;2022-09-14T07:46:20;8.85;;;1.48;;
67140;SDS011;54058;52.010;5.546;2022-09-14T07:48:46;8.57;;;1.58;;
67140;SDS011;54058;52.010;5.546;2022-09-14T07:51:13;6.18;;;1.50;;
67140;SDS011;54058;52.010;5.546;2022-09-14T07:53:39;3.53;;;1.20;;
67140;SDS011;54058;52.010;5.546;2022-09-14T07:56:07;10.57;;;1.73;;
67140;SDS011;54058;52.010;5.546;2022-09-14T08:00:59;7.93;;;1.50;;
67140;SDS011;54058;52.010;5.546;2022-09-14T08:03:27;11.48;;;1.55;;
67140;SDS011;54058;52.010;5.546;2022-09-14T08:06:00;10.15;;;1.70;;
67140;SDS011;54058;52.010;5.546;2022-09-14T08:08:28;7.47;;;1.58;;
67140;SDS011;54058;52.010;5.546;2022-09-14T08:10:55;9.32;;;2.55;;
67140;SDS011;54058;52.010;5.546;2022-09-14T08:13:27;13.00;;;2.28;;
67140;SDS011;54058;52.010;5.546;2022-09-14T08:15:52;5.25;;;2.00;;
67140;SDS011;54058;52.010;5.546;2022-09-14T08:18:18;9.45;;;2.33;;
67140;SDS011;54058;52.010;5.546;2022-09-14T08:20:43;8.65;;;1.98;;
67140;SDS011;54058;52.010;5.546;2022-09-14T08:23:09;15.80;;;2.45;;
67140;SDS011;54058;52.010;5.546;2022-09-14T08:25:35;16.02;;;2.40;;
67140;SDS011;54058;52.010;5.546;2022-09-14T08:28:00;8.73;;;2.10;;
67140;SDS011;54058;52.010;5.546;2022-09-14T08:30:26;8.82;;;1.95;;
67140;SDS011;54058;52.010;5.546;2022-09-14T08:32:52;18.05;;;2.40;;
67140;SDS011;54058;52.010;5.546;2022-09-14T08:35:17;12.88;;;2.13;;
67140;SDS011;54058;52.010;5.546;2022-09-14T08:37:43;5.22;;;1.90;;
67140;SDS011;54058;52.010;5.546;2022-09-14T08:40:09;8.27;;;1.85;;
67140;SDS011;54058;52.010;5.546;2022-09-14T08:42:36;4.95;;;1.67;;
67140;SDS011;54058;52.010;5.546;2022-09-14T08:45:03;9.40;;;1.73;;
67140;SDS011;54058;52.010;5.546;2022-09-14T08:47:31;6.95;;;1.98;;
67140;SDS011;54058;52.010;5.546;2022-09-14T08:50:17;11.23;;;1.90;;
67140;SDS011;54058;52.010;5.546;2022-09-14T08:52:45;10.45;;;1.60;;
67140;SDS011;54058;52.010;5.546;2022-09-14T08:55:18;9.02;;;1.50;;
67140;SDS011;54058;52.010;5.546;2022-09-14T09:00:44;5.15;;;1.30;;
67140;SDS011;54058;52.010;5.546;2022-09-14T09:11:34;8.57;;;1.15;;
67140;SDS011;54058;52.010;5.546;2022-09-14T09:14:12;5.72;;;1.45;;
67140;SDS011;54058;52.010;5.546;2022-09-14T09:16:45;6.35;;;1.30;;
67140;SDS011;54058;52.010;5.546;2022-09-14T09:19:16;17.17;;;1.73;;
67140;SDS011;54058;52.010;5.546;2022-09-14T09:21:47;6.65;;;1.23;;
67140;SDS011;54058;52.010;5.546;2022-09-14T09:26:57;6.38;;;1.40;;
67140;SDS011;54058;52.010;5.546;2022-09-14T09:29:23;13.13;;;1.85;;
67140;SDS011;54058;52.010;5.546;2022-09-14T09:31:50;5.93;;;1.80;;
67140;SDS011;54058;52.010;5.546;2022-09-14T09:34:21;10.82;;;2.53;;
67140;SDS011;54058;52.010;5.546;2022-09-14T09:36:51;4.60;;;1.50;;
67140;SDS011;54058;52.010;5.546;2022-09-14T09:39:17;8.68;;;1.52;;
67140;SDS011;54058;52.010;5.546;2022-09-14T09:41:47;12.13;;;1.70;;
67140;SDS011;54058;52.010;5.546;2022-09-14T09:44:18;3.95;;;1.23;;
67140;SDS011;54058;52.010;5.546;2022-09-14T09:46:48;8.45;;;2.03;;
67140;SDS011;54058;52.010;5.546;2022-09-14T09:52:09;10.98;;;1.75;;
67140;SDS011;54058;52.010;5.546;2022-09-14T09:54:35;3.78;;;1.48;;
67140;SDS011;54058;52.010;5.546;2022-09-14T09:57:18;4.25;;;1.23;;
67140;SDS011;54058;52.010;5.546;2022-09-14T10:02:41;6.60;;;1.05;;
67140;SDS011;54058;52.010;5.546;2022-09-14T10:07:34;3.72;;;1.10;;
67140;SDS011;54058;52.010;5.546;2022-09-14T10:10:07;8.70;;;1.30;;
67140;SDS011;54058;52.010;5.546;2022-09-14T10:12:35;6.15;;;1.02;;
67140;SDS011;54058;52.010;5.546;2022-09-14T10:17:38;3.28;;;1.38;;
67140;SDS011;54058;52.010;5.546;2022-09-14T10:20:04;8.13;;;1.30;;
67140;SDS011;54058;52.010;5.546;2022-09-14T10:22:31;4.97;;;1.23;;
67140;SDS011;54058;52.010;5.546;2022-09-14T10:30:20;5.25;;;1.30;;
67140;SDS011;54058;52.010;5.546;2022-09-14T10:33:01;1.75;;;0.75;;
67140;SDS011;54058;52.010;5.546;2022-09-14T10:40:36;6.60;;;1.52;;
67140;SDS011;54058;52.010;5.546;2022-09-14T10:43:11;3.35;;;1.00;;
67140;SDS011;54058;52.010;5.546;2022-09-14T10:46:01;2.78;;;0.90;;
67140;SDS011;54058;52.010;5.546;2022-09-14T11:07:31;7.63;;;1.40;;
67140;SDS011;54058;52.010;5.546;2022-09-14T11:10:31;6.75;;;1.05;;
67140;SDS011;54058;52.010;5.546;2022-09-14T11:23:29;4.95;;;0.93;;
67140;SDS011;54058;52.010;5.546;2022-09-14T11:28:51;4.15;;;1.02;;
67140;SDS011;54058;52.010;5.546;2022-09-14T11:31:40;11.27;;;1.20;;
67140;SDS011;54058;52.010;5.546;2022-09-14T11:37:04;9.45;;;1.25;;
67140;SDS011;54058;52.010;5.546;2022-09-14T11:39:43;8.35;;;1.00;;
67140;SDS011;54058;52.010;5.546;2022-09-14T11:42:21;8.60;;;1.25;;
67140;SDS011;54058;52.010;5.546;2022-09-14T11:45:00;3.60;;;0.80;;
67140;SDS011;54058;52.010;5.546;2022-09-14T11:47:34;5.97;;;0.93;;
67140;SDS011;54058;52.010;5.546;2022-09-14T11:50:20;5.40;;;1.60;;
67140;SDS011;54058;52.010;5.546;2022-09-14T11:52:50;5.03;;;1.13;;
67140;SDS011;54058;52.010;5.546;2022-09-14T11:55:25;5.72;;;1.17;;
67140;SDS011;54058;52.010;5.546;2022-09-14T11:57:51;4.73;;;1.33;;
67140;SDS011;54058;52.010;5.546;2022-09-14T12:05:27;4.07;;;1.02;;
67140;SDS011;54058;52.010;5.546;2022-09-14T12:07:59;9.90;;;1.40;;
67140;SDS011;54058;52.010;5.546;2022-09-14T12:10:26;6.38;;;1.50;;
67140;SDS011;54058;52.010;5.546;2022-09-14T12:12:52;10.63;;;1.87;;
67140;SDS011;54058;52.010;5.546;2022-09-14T12:17:51;6.05;;;1.77;;
67140;SDS011;54058;52.010;5.546;2022-09-14T12:31:11;7.63;;;2.05;;
67140;SDS011;54058;52.010;5.546;2022-09-14T12:36:58;7.90;;;2.40;;
67140;SDS011;54058;52.010;5.546;2022-09-14T12:39:27;4.30;;;1.50;;
67140;SDS011;54058;52.010;5.546;2022-09-14T12:47:47;5.35;;;1.95;;
67140;SDS011;54058;52.010;5.546;2022-09-14T12:50:16;6.43;;;2.13;;
67140;SDS011;54058;52.010;5.546;2022-09-14T12:55:38;4.55;;;1.90;;
67140;SDS011;54058;52.010;5.546;2022-09-14T12:58:26;8.13;;;2.22;;
67140;SDS011;54058;52.010;5.546;2022-09-14T13:06:14;7.90;;;2.20;;
67140;SDS011;54058;52.010;5.546;2022-09-14T13:11:22;11.18;;;1.80;;
67140;SDS011;54058;52.010;5.546;2022-09-14T13:13:55;7.05;;;1.58;;
67140;SDS011;54058;52.010;5.546;2022-09-14T13:16:27;6.50;;;1.58;;
67140;SDS011;54058;52.010;5.546;2022-09-14T13:19:01;5.50;;;1.50;;
67140;SDS011;54058;52.010;5.546;2022-09-14T13:21:29;4.20;;;1.25;;
67140;SDS011;54058;52.010;5.546;2022-09-14T13:23:55;9.00;;;2.13;;
67140;SDS011;54058;52.010;5.546;2022-09-14T13:26:25;7.60;;;1.90;;
67140;SDS011;54058;52.010;5.546;2022-09-14T13:28:53;11.93;;;2.13;;
67140;SDS011;54058;52.010;5.546;2022-09-14T13:31:30;10.20;;;1.55;;
67140;SDS011;54058;52.010;5.546;2022-09-14T13:33:59;4.75;;;1.50;;
67140;SDS011;54058;52.010;5.546;2022-09-14T13:36:31;7.30;;;1.40;;
67140;SDS011;54058;52.010;5.546;2022-09-14T13:39:00;6.43;;;1.38;;
67140;SDS011;54058;52.010;5.546;2022-09-14T13:41:28;11.25;;;1.55;;
67140;SDS011;54058;52.010;5.546;2022-09-14T13:43:55;10.98;;;1.63;;
67140;SDS011;54058;52.010;5.546;2022-09-14T13:46:22;4.22;;;1.33;;
67140;SDS011;54058;52.010;5.546;2022-09-14T13:48:49;5.40;;;2.03;;
67140;SDS011;54058;52.010;5.546;2022-09-14T13:51:16;6.57;;;1.70;;
67140;SDS011;54058;52.010;5.546;2022-09-14T13:53:51;10.85;;;1.77;;
67140;SDS011;54058;52.010;5.546;2022-09-14T13:56:26;4.60;;;1.60;;
67140;SDS011;54058;52.010;5.546;2022-09-14T14:09:41;6.88;;;1.42;;
67140;SDS011;54058;52.010;5.546;2022-09-14T14:12:09;6.05;;;1.35;;
67140;SDS011;54058;52.010;5.546;2022-09-14T14:14:36;6.72;;;1.40;;
67140;SDS011;54058;52.010;5.546;2022-09-14T14:19:38;7.82;;;1.48;;
67140;SDS011;54058;52.010;5.546;2022-09-14T14:24:56;4.72;;;1.70;;
67140;SDS011;54058;52.010;5.546;2022-09-14T14:27:27;6.65;;;1.40;;
67140;SDS011;54058;52.010;5.546;2022-09-14T14:29:53;4.50;;;1.20;;
67140;SDS011;54058;52.010;5.546;2022-09-14T14:32:19;6.37;;;1.20;;
67140;SDS011;54058;52.010;5.546;2022-09-14T14:34:45;3.30;;;1.27;;
67140;SDS011;54058;52.010;5.546;2022-09-14T14:37:10;9.73;;;2.17;;
67140;SDS011;54058;52.010;5.546;2022-09-14T14:39:36;4.03;;;1.30;;
67140;SDS011;54058;52.010;5.546;2022-09-14T14:42:02;7.80;;;1.67;;
67140;SDS011;54058;52.010;5.546;2022-09-14T14:44:28;5.13;;;1.20;;
67140;SDS011;54058;52.010;5.546;2022-09-14T14:46:54;3.58;;;1.33;;
67140;SDS011;54058;52.010;5.546;2022-09-14T14:49:20;5.88;;;1.50;;
67140;SDS011;54058;52.010;5.546;2022-09-14T14:54:13;3.03;;;0.90;;
67140;SDS011;54058;52.010;5.546;2022-09-14T14:56:41;6.18;;;1.50;;
67140;SDS011;54058;52.010;5.546;2022-09-14T14:59:15;8.55;;;1.92;;
67140;SDS011;54058;52.010;5.546;2022-09-14T15:01:43;4.70;;;1.13;;
67140;SDS011;54058;52.010;5.546;2022-09-14T15:04:09;4.37;;;1.43;;
67140;SDS011;54058;52.010;5.546;2022-09-14T15:06:35;6.43;;;1.90;;
67140;SDS011;54058;52.010;5.546;2022-09-14T15:09:00;3.33;;;1.00;;
67140;SDS011;54058;52.010;5.546;2022-09-14T15:11:26;6.97;;;1.47;;
67140;SDS011;54058;52.010;5.546;2022-09-14T15:13:52;4.20;;;1.10;;
67140;SDS011;54058;52.010;5.546;2022-09-14T15:16:18;5.87;;;1.30;;
67140;SDS011;54058;52.010;5.546;2022-09-14T15:18:43;4.93;;;1.60;;
67140;SDS011;54058;52.010;5.546;2022-09-14T15:21:09;4.97;;;1.37;;
67140;SDS011;54058;52.010;5.546;2022-09-14T15:23:35;6.30;;;1.30;;
67140;SDS011;54058;52.010;5.546;2022-09-14T15:26:01;11.80;;;1.47;;
67140;SDS011;54058;52.010;5.546;2022-09-14T15:28:26;5.93;;;1.97;;
67140;SDS011;54058;52.010;5.546;2022-09-14T15:30:52;4.53;;;1.30;;
67140;SDS011;54058;52.010;5.546;2022-09-14T15:33:18;7.93;;;1.40;;
67140;SDS011;54058;52.010;5.546;2022-09-14T15:35:44;10.20;;;1.27;;
67140;SDS011;54058;52.010;5.546;2022-09-14T15:38:09;5.00;;;1.27;;
67140;SDS011;54058;52.010;5.546;2022-09-14T15:40:35;7.17;;;1.43;;
67140;SDS011;54058;52.010;5.546;2022-09-14T15:43:01;6.10;;;1.50;;
67140;SDS011;54058;52.010;5.546;2022-09-14T15:45:27;6.57;;;1.48;;
67140;SDS011;54058;52.010;5.546;2022-09-14T15:47:53;8.23;;;1.40;;
67140;SDS011;54058;52.010;5.546;2022-09-14T15:50:18;9.87;;;1.60;;
67140;SDS011;54058;52.010;5.546;2022-09-14T15:52:44;3.13;;;1.40;;
67140;SDS011;54058;52.010;5.546;2022-09-14T15:55:10;4.13;;;1.10;;
67140;SDS011;54058;52.010;5.546;2022-09-14T15:57:36;4.53;;;1.05;;
67140;SDS011;54058;52.010;5.546;2022-09-14T16:00:04;6.28;;;1.40;;
67140;SDS011;54058;52.010;5.546;2022-09-14T16:02:32;7.90;;;1.38;;
67140;SDS011;54058;52.010;5.546;2022-09-14T16:04:57;8.90;;;1.27;;
67140;SDS011;54058;52.010;5.546;2022-09-14T16:07:23;5.13;;;1.37;;
67140;SDS011;54058;52.010;5.546;2022-09-14T16:09:49;4.82;;;1.50;;
67140;SDS011;54058;52.010;5.546;2022-09-14T16:12:15;7.63;;;1.67;;
67140;SDS011;54058;52.010;5.546;2022-09-14T16:14:40;11.03;;;2.10;;
67140;SDS011;54058;52.010;5.546;2022-09-14T16:17:06;8.07;;;1.20;;
67140;SDS011;54058;52.010;5.546;2022-09-14T16:19:32;8.10;;;1.20;;
67140;SDS011;54058;52.010;5.546;2022-09-14T16:21:58;8.10;;;1.08;;
67140;SDS011;54058;52.010;5.546;2022-09-14T16:24:24;6.67;;;1.13;;
67140;SDS011;54058;52.010;5.546;2022-09-14T16:26:50;7.57;;;1.20;;
67140;SDS011;54058;52.010;5.546;2022-09-14T16:29:17;4.60;;;1.02;;
67140;SDS011;54058;52.010;5.546;2022-09-14T16:31:44;5.25;;;1.23;;
67140;SDS011;54058;52.010;5.546;2022-09-14T16:34:16;4.22;;;1.15;;
67140;SDS011;54058;52.010;5.546;2022-09-14T16:36:44;9.02;;;1.05;;
67140;SDS011;54058;52.010;5.546;2022-09-14T16:39:15;7.43;;;1.30;;
67140;SDS011;54058;52.010;5.546;2022-09-14T16:41:42;4.30;;;1.30;;
67140;SDS011;54058;52.010;5.546;2022-09-14T16:44:09;4.57;;;1.43;;
67140;SDS011;54058;52.010;5.546;2022-09-14T16:46:37;6.82;;;1.50;;
67140;SDS011;54058;52.010;5.546;2022-09-14T16:49:03;3.00;;;0.90;;
67140;SDS011;54058;52.010;5.546;2022-09-14T16:51:30;7.00;;;1.63;;
67140;SDS011;54058;52.010;5.546;2022-09-14T16:53:57;4.57;;;1.33;;
67140;SDS011;54058;52.010;5.546;2022-09-14T16:56:28;4.35;;;1.02;;
67140;SDS011;54058;52.010;5.546;2022-09-14T16:58:55;5.55;;;1.10;;
67140;SDS011;54058;52.010;5.546;2022-09-14T17:01:23;5.78;;;1.05;;
67140;SDS011;54058;52.010;5.546;2022-09-14T17:03:50;4.03;;;1.00;;
67140;SDS011;54058;52.010;5.546;2022-09-14T17:08:44;7.75;;;1.10;;
67140;SDS011;54058;52.010;5.546;2022-09-14T17:11:10;2.10;;;0.93;;
67140;SDS011;54058;52.010;5.546;2022-09-14T17:13:37;6.00;;;0.82;;
67140;SDS011;54058;52.010;5.546;2022-09-14T17:16:04;6.88;;;1.27;;
67140;SDS011;54058;52.010;5.546;2022-09-14T17:18:33;4.78;;;1.08;;
67140;SDS011;54058;52.010;5.546;2022-09-14T17:21:01;4.85;;;0.85;;
67140;SDS011;54058;52.010;5.546;2022-09-14T17:23:29;10.82;;;1.38;;
67140;SDS011;54058;52.010;5.546;2022-09-14T17:25:54;7.60;;;1.05;;
67140;SDS011;54058;52.010;5.546;2022-09-14T17:28:22;10.43;;;1.63;;
67140;SDS011;54058;52.010;5.546;2022-09-14T17:30:56;7.72;;;1.30;;
67140;SDS011;54058;52.010;5.546;2022-09-14T17:33:23;4.50;;;0.80;;
67140;SDS011;54058;52.010;5.546;2022-09-14T17:35:53;6.40;;;1.52;;
67140;SDS011;54058;52.010;5.546;2022-09-14T17:38:30;9.25;;;1.17;;
67140;SDS011;54058;52.010;5.546;2022-09-14T17:43:26;2.25;;;0.90;;
67140;SDS011;54058;52.010;5.546;2022-09-14T17:45:55;7.90;;;1.58;;
67140;SDS011;54058;52.010;5.546;2022-09-14T17:48:21;6.05;;;2.00;;
67140;SDS011;54058;52.010;5.546;2022-09-14T17:53:14;8.67;;;2.90;;